Time;durP1;ratioP1;P1;durP2;ratioP2;P2;SDS_P1;SDS_P2;PMS_P1;PMS_P2;Temp;Humidity;BMP_temperature;BMP_pressure;BME280_temperature;BME280_humidity;BME280_pressure;Samples;Min_cycle;Max_cycle;Signal;HPM_P1;HPM_P2
2023/08/14 00:02:02;;;;;;;1999.90;999.90;;;18.10;99.90;;;;;;5090330;28;20117;-70
2023/08/14 00:04:28;;;;;;;1999.90;999.90;;;18.10;99.90;;;;;;5090349;28;20035;-70
2023/08/14 00:06:54;;;;;;;1999.90;999.90;;;18.10;99.90;;;;;;5087876;28;20032;-70
2023/08/14 00:09:20;;;;;;;1999.90;999.90;;;17.90;99.90;;;;;;5087959;28;20032;-70
2023/08/14 00:11:45;;;;;;;1999.90;999.90;;;18.10;99.90;;;;;;5087424;28;20032;-70
2023/08/14 00:14:11;;;;;;;1999.90;999.90;;;18.20;99.90;;;;;;5089367;28;20024;-70
2023/08/14 00:16:37;;;;;;;1999.90;999.90;;;18.30;99.90;;;;;;5089572;28;20107;-70
2023/08/14 00:19:03;;;;;;;1999.90;999.90;;;18.10;99.90;;;;;;5091439;28;20036;-70
2023/08/14 00:21:28;;;;;;;1999.90;999.90;;;18.10;99.90;;;;;;5085179;28;20036;-70
2023/08/14 00:23:54;;;;;;;1999.90;999.90;;;18.10;99.90;;;;;;5089347;28;20044;-70
2023/08/14 00:26:20;;;;;;;1999.90;999.90;;;18.20;99.90;;;;;;5087301;28;20044;-70
2023/08/14 00:28:45;;;;;;;1999.90;999.90;;;18.20;99.90;;;;;;5091200;28;20044;-70
2023/08/14 00:31:11;;;;;;;1999.90;999.90;;;18.10;99.90;;;;;;5088856;28;20501;-70
2023/08/14 00:33:37;;;;;;;1999.90;999.90;;;18.20;99.90;;;;;;5083688;28;20030;-70
2023/08/14 00:36:05;;;;;;;1999.90;999.90;;;18.30;99.90;;;;;;5091926;28;20028;-70
2023/08/14 00:38:31;;;;;;;1999.90;999.90;;;18.50;99.90;;;;;;5089207;28;20127;-70
2023/08/14 00:40:57;;;;;;;1999.90;999.90;;;18.60;99.90;;;;;;5087777;28;20122;-70
2023/08/14 00:43:22;;;;;;;1999.90;999.90;;;18.70;99.90;;;;;;5085207;28;20089;-70
2023/08/14 00:45:52;;;;;;;1999.90;999.90;;;18.60;99.90;;;;;;5086204;28;20131;-70
2023/08/14 00:48:18;;;;;;;1999.90;999.90;;;20.80;99.90;;;;;;5088692;28;20040;-70
2023/08/14 00:50:44;;;;;;;1999.90;999.90;;;19.60;99.90;;;;;;5088551;28;20047;-70
2023/08/14 00:53:12;;;;;;;1999.90;999.90;;;20.30;99.90;;;;;;5089007;28;20363;-71
2023/08/14 00:55:38;;;;;;;1999.90;999.90;;;20.10;99.90;;;;;;5105801;28;20490;-72
2023/08/14 00:58:04;;;;;;;1999.90;999.90;;;20.30;99.90;;;;;;5086909;28;20035;-71
2023/08/14 01:00:30;;;;;;;1999.90;999.90;;;20.30;99.90;;;;;;5087729;28;20070;-71
2023/08/14 01:02:56;;;;;;;1999.90;999.90;;;20.20;99.90;;;;;;5089457;28;20059;-72
2023/08/14 01:05:23;;;;;;;1999.90;999.90;;;20.10;99.90;;;;;;5085410;28;20505;-71
2023/08/14 01:07:49;;;;;;;1999.90;999.90;;;20.50;99.90;;;;;;5087022;28;20153;-71
2023/08/14 01:10:15;;;;;;;1999.90;999.90;;;20.00;99.90;;;;;;5088999;28;20474;-71
2023/08/14 01:12:49;;;;;;;1999.90;999.90;;;20.00;99.90;;;;;;5088906;28;20058;-71
2023/08/14 01:15:26;;;;;;;1999.90;999.90;;;20.10;99.90;;;;;;5088480;28;20474;-72
2023/08/14 01:17:59;;;;;;;1999.90;999.90;;;20.10;99.90;;;;;;5086021;28;20024;-71
2023/08/14 01:20:27;;;;;;;1999.90;999.90;;;20.30;99.90;;;;;;5086706;28;20023;-71
2023/08/14 01:23:22;;;;;;;1999.90;999.90;;;20.20;99.90;;;;;;5087139;28;20035;-71
2023/08/14 01:25:51;;;;;;;1999.90;999.90;;;19.90;99.90;;;;;;5087347;28;20031;-71
2023/08/14 01:28:17;;;;;;;1999.90;999.90;;;19.90;99.90;;;;;;5087055;28;20475;-72
2023/08/14 01:30:43;;;;;;;1999.90;999.90;;;19.90;99.90;;;;;;5087475;28;20035;-71
2023/08/14 01:33:08;;;;;;;1999.90;999.90;;;20.10;99.90;;;;;;5089961;28;20028;-71
2023/08/14 01:35:42;;;;;;;1999.90;999.90;;;20.10;99.90;;;;;;5086635;28;20461;-71
2023/08/14 01:38:28;;;;;;;1999.90;999.90;;;19.80;99.90;;;;;;5088009;28;20039;-71
2023/08/14 01:40:56;;;;;;;1999.90;999.90;;;19.80;99.90;;;;;;5089675;28;20035;-71
2023/08/14 01:43:27;;;;;;;1999.90;999.90;;;19.70;99.90;;;;;;5085694;28;20028;-71
2023/08/14 01:45:54;;;;;;;1999.90;999.90;;;20.00;99.90;;;;;;5084181;28;20032;-72
2023/08/14 01:48:22;;;;;;;1999.90;999.90;;;19.70;99.90;;;;;;5088043;28;20109;-72
2023/08/14 01:50:50;;;;;;;1999.90;999.90;;;19.70;99.90;;;;;;5084995;28;20043;-72
2023/08/14 01:53:16;;;;;;;1999.90;999.90;;;19.90;99.90;;;;;;5086461;28;20056;-71
2023/08/14 01:55:42;;;;;;;1999.90;999.90;;;19.60;99.90;;;;;;5087068;28;20039;-71
2023/08/14 01:58:08;;;;;;;1999.90;999.90;;;19.80;99.90;;;;;;5086869;28;20028;-71
2023/08/14 02:00:34;;;;;;;1999.90;999.90;;;19.70;99.90;;;;;;5083792;28;20024;-70
2023/08/14 02:03:00;;;;;;;1999.90;999.90;;;19.60;99.90;;;;;;5083032;28;20035;-72
2023/08/14 02:05:26;;;;;;;1999.90;999.90;;;19.70;99.90;;;;;;5088270;28;20978;-71
2023/08/14 02:07:52;;;;;;;1999.90;999.90;;;19.60;99.90;;;;;;5087443;28;20071;-71
2023/08/14 02:10:18;;;;;;;1999.90;999.90;;;19.40;99.90;;;;;;5066641;28;20029;-71
2023/08/14 02:12:43;;;;;;;1999.90;999.90;;;19.40;99.90;;;;;;5087667;28;20482;-71
2023/08/14 02:15:09;;;;;;;1999.90;999.90;;;19.40;99.90;;;;;;5087084;28;20032;-71
2023/08/14 02:17:35;;;;;;;1999.90;999.90;;;19.40;99.90;;;;;;5084829;28;20024;-71
2023/08/14 02:20:00;;;;;;;1999.90;999.90;;;19.50;99.90;;;;;;5088266;28;20036;-72
2023/08/14 02:22:26;;;;;;;1999.90;999.90;;;19.60;99.90;;;;;;5085126;28;20084;-71
2023/08/14 02:24:52;;;;;;;1999.90;999.90;;;19.30;99.90;;;;;;5083624;28;20033;-71
2023/08/14 02:27:18;;;;;;;1999.90;999.90;;;19.30;99.90;;;;;;5087745;28;20083;-71
2023/08/14 02:29:44;;;;;;;1999.90;999.90;;;19.30;99.90;;;;;;5084621;28;20060;-71
2023/08/14 02:32:10;;;;;;;1999.90;999.90;;;19.40;99.90;;;;;;5084320;28;20054;-71
2023/08/14 02:34:45;;;;;;;1999.90;999.90;;;19.10;99.90;;;;;;5084702;28;20028;-71
2023/08/14 02:37:12;;;;;;;1999.90;999.90;;;19.10;99.90;;;;;;5084350;28;20032;-71
2023/08/14 02:39:38;;;;;;;1999.90;999.90;;;19.10;99.90;;;;;;5085617;28;20116;-71
2023/08/14 02:42:04;;;;;;;1999.90;999.90;;;19.30;99.90;;;;;;5085617;28;20468;-71
2023/08/14 02:44:30;;;;;;;1999.90;999.90;;;19.30;99.90;;;;;;5086136;28;20036;-71
2023/08/14 02:46:56;;;;;;;1999.90;999.90;;;19.20;99.90;;;;;;5087147;28;20422;-72
2023/08/14 02:49:22;;;;;;;1999.90;999.90;;;19.30;99.90;;;;;;5085029;28;20035;-71
2023/08/14 02:51:48;;;;;;;1999.90;999.90;;;19.20;99.90;;;;;;5086745;28;20470;-71
2023/08/14 02:54:13;;;;;;;1999.90;999.90;;;19.30;99.90;;;;;;5087784;28;20553;-71
2023/08/14 02:56:39;;;;;;;1999.90;999.90;;;19.30;99.90;;;;;;5088118;28;20024;-71
2023/08/14 02:59:04;;;;;;;1999.90;999.90;;;18.90;99.90;;;;;;5088163;28;20505;-71
2023/08/14 03:01:30;;;;;;;1999.90;999.90;;;19.00;99.90;;;;;;5083430;28;20043;-71
2023/08/14 03:03:56;;;;;;;1999.90;999.90;;;19.10;99.90;;;;;;5085841;28;20039;-71
2023/08/14 03:06:21;;;;;;;1999.90;999.90;;;18.90;99.90;;;;;;5081206;28;20491;-71
2023/08/14 03:08:48;;;;;;;1999.90;999.90;;;19.00;99.90;;;;;;5084666;28;20036;-71
2023/08/14 03:11:14;;;;;;;1999.90;999.90;;;18.70;99.90;;;;;;5081906;28;20028;-71
2023/08/14 03:13:40;;;;;;;1999.90;999.90;;;18.60;99.90;;;;;;5081963;28;20477;-71
2023/08/14 03:16:06;;;;;;;1999.90;999.90;;;18.50;99.90;;;;;;5083105;28;20044;-71
2023/08/14 03:18:31;;;;;;;1999.90;999.90;;;18.60;99.90;;;;;;5084501;28;20043;-71
2023/08/14 03:20:57;;;;;;;1999.90;999.90;;;18.40;99.90;;;;;;5087113;28;20469;-71
2023/08/14 03:23:23;;;;;;;1999.90;999.90;;;18.20;99.90;;;;;;5084144;28;20490;-71
2023/08/14 03:25:48;;;;;;;1999.90;999.90;;;18.10;99.90;;;;;;5085325;28;20040;-70
2023/08/14 03:28:14;;;;;;;1999.90;999.90;;;18.00;99.90;;;;;;5092802;28;20087;-70
2023/08/14 03:30:41;;;;;;;1999.90;999.90;;;18.10;99.90;;;;;;5096869;28;20157;-70
2023/08/14 03:33:07;;;;;;;1999.90;999.90;;;18.10;99.90;;;;;;5096932;28;20039;-70
2023/08/14 03:35:33;;;;;;;1999.90;999.90;;;18.10;99.90;;;;;;5093106;28;20106;-71
2023/08/14 03:37:58;;;;;;;1999.90;999.90;;;18.10;99.90;;;;;;5092604;28;20029;-70
2023/08/14 03:40:24;;;;;;;1999.90;999.90;;;17.90;99.90;;;;;;5093276;28;20035;-70
2023/08/14 03:42:50;;;;;;;1999.90;999.90;;;18.10;99.90;;;;;;5090607;28;20036;-70
2023/08/14 03:45:16;;;;;;;1999.90;999.90;;;18.10;99.90;;;;;;5092170;28;20028;-71
2023/08/14 03:47:41;;;;;;;1999.90;999.90;;;18.00;99.90;;;;;;5089204;28;20078;-71
2023/08/14 03:50:07;;;;;;;1999.90;999.90;;;17.90;99.90;;;;;;5090533;28;20583;-71
2023/08/14 03:52:33;;;;;;;1999.90;999.90;;;17.90;99.90;;;;;;5092193;28;20570;-71
2023/08/14 03:54:59;;;;;;;1999.90;999.90;;;17.90;99.90;;;;;;5093342;28;20475;-70
2023/08/14 03:57:24;;;;;;;1999.90;999.90;;;17.90;99.90;;;;;;5087750;28;20035;-71
2023/08/14 03:59:50;;;;;;;1999.90;999.90;;;17.80;99.90;;;;;;5090030;28;20032;-71
2023/08/14 04:02:16;;;;;;;1999.90;999.90;;;17.70;99.90;;;;;;5088924;28;20123;-71
2023/08/14 04:04:41;;;;;;;1999.90;999.90;;;17.90;99.90;;;;;;5086808;28;20043;-71
2023/08/14 04:07:07;;;;;;;1999.90;999.90;;;17.90;99.90;;;;;;5089288;28;20539;-70
2023/08/14 04:09:33;;;;;;;1999.90;999.90;;;17.80;99.90;;;;;;5090917;28;20723;-71
2023/08/14 04:12:00;;;;;;;1999.90;999.90;;;17.70;99.90;;;;;;5087881;28;20471;-71
2023/08/14 04:14:26;;;;;;;1999.90;999.90;;;17.70;99.90;;;;;;5089869;28;20028;-71
2023/08/14 04:16:54;;;;;;;1999.90;999.90;;;17.70;99.90;;;;;;5085689;28;20032;-71
2023/08/14 04:19:20;;;;;;;1999.90;999.90;;;17.60;99.90;;;;;;5088358;28;20048;-71
2023/08/14 04:21:46;;;;;;;1999.90;999.90;;;17.60;99.90;;;;;;5088681;28;20036;-71
2023/08/14 04:24:12;;;;;;;1999.90;999.90;;;17.50;99.90;;;;;;5087823;28;20028;-71
2023/08/14 04:26:39;;;;;;;1999.90;999.90;;;17.50;99.90;;;;;;5088425;28;20084;-71
2023/08/14 04:29:08;;;;;;;1999.90;999.90;;;17.50;99.90;;;;;;5086416;28;20040;-71
2023/08/14 04:31:35;;;;;;;1999.90;999.90;;;17.60;99.90;;;;;;5083936;28;20162;-71
2023/08/14 04:34:01;;;;;;;1999.90;999.90;;;17.70;99.90;;;;;;5088185;28;20266;-71
2023/08/14 04:36:27;;;;;;;1999.90;999.90;;;17.70;99.90;;;;;;5089487;28;20055;-71
2023/08/14 04:38:55;;;;;;;1999.90;999.90;;;17.60;99.90;;;;;;5089489;28;20063;-71
2023/08/14 04:41:21;;;;;;;1999.90;999.90;;;17.70;99.90;;;;;;5089513;28;20436;-71
2023/08/14 04:43:47;;;;;;;1999.90;999.90;;;17.70;99.90;;;;;;5087891;28;20036;-71
2023/08/14 04:46:28;;;;;;;1999.90;999.90;;;17.70;99.90;;;;;;5088563;28;20032;-71
2023/08/14 04:48:54;;;;;;;1999.90;999.90;;;17.90;99.90;;;;;;5087009;28;20032;-71
2023/08/14 04:51:20;;;;;;;1999.90;999.90;;;17.80;99.90;;;;;;5089697;28;20032;-71
2023/08/14 04:53:45;;;;;;;1999.90;999.90;;;17.70;99.90;;;;;;5085824;28;20044;-71
2023/08/14 04:56:11;;;;;;;1999.90;999.90;;;17.90;99.90;;;;;;5087795;28;20020;-71
2023/08/14 04:58:36;;;;;;;1999.90;999.90;;;17.90;99.90;;;;;;5087862;28;20073;-71
2023/08/14 05:01:02;;;;;;;1999.90;999.90;;;17.90;99.90;;;;;;5087136;28;20090;-71
2023/08/14 05:03:28;;;;;;;1999.90;999.90;;;17.90;99.90;;;;;;5084527;28;20024;-71
2023/08/14 05:05:54;;;;;;;1999.90;999.90;;;17.80;99.90;;;;;;5085506;28;20033;-71
2023/08/14 05:08:19;;;;;;;1999.90;999.90;;;17.70;99.90;;;;;;5093506;28;20448;-71
2023/08/14 05:10:50;;;;;;;1999.90;999.90;;;17.70;99.90;;;;;;5087659;28;20033;-71
2023/08/14 05:13:16;;;;;;;1999.90;999.90;;;17.90;99.90;;;;;;5088642;28;20042;-71
2023/08/14 05:15:41;;;;;;;1999.90;999.90;;;17.80;99.90;;;;;;5086503;28;20024;-71
2023/08/14 05:18:07;;;;;;;1999.90;999.90;;;17.90;99.90;;;;;;5086446;28;20034;-71
2023/08/14 05:20:36;;;;;;;1999.90;999.90;;;17.90;99.90;;;;;;5087707;28;20116;-71
2023/08/14 05:23:01;;;;;;;1999.90;999.90;;;17.90;99.90;;;;;;5086966;28;20035;-71
2023/08/14 05:25:27;;;;;;;1999.90;999.90;;;17.90;99.90;;;;;;5088071;28;20024;-71
2023/08/14 05:27:53;;;;;;;1999.90;999.90;;;17.90;99.90;;;;;;5087364;28;20049;-68
2023/08/14 05:30:18;;;;;;;1999.90;999.90;;;18.00;99.90;;;;;;5084932;28;20099;-78
2023/08/14 05:32:47;;;;;;;1999.90;999.90;;;18.00;99.90;;;;;;5086414;28;20111;-82
2023/08/14 05:35:13;;;;;;;1999.90;999.90;;;18.00;99.90;;;;;;5083068;28;20032;-71
2023/08/14 05:37:42;;;;;;;1999.90;999.90;;;18.10;99.90;;;;;;5084892;28;20027;-71
2023/08/14 05:40:10;;;;;;;1999.90;999.90;;;18.10;99.90;;;;;;5088121;28;20044;-71
2023/08/14 05:42:36;;;;;;;1999.90;999.90;;;18.20;99.90;;;;;;5087794;28;20031;-72
2023/08/14 05:45:02;;;;;;;1999.90;999.90;;;18.30;99.90;;;;;;5084480;28;20398;-71
2023/08/14 05:47:28;;;;;;;1999.90;999.90;;;18.30;99.90;;;;;;5081305;28;20147;-71
2023/08/14 05:49:54;;;;;;;1999.90;999.90;;;18.40;99.90;;;;;;5086928;28;20032;-71
2023/08/14 05:52:19;;;;;;;1999.90;999.90;;;18.60;99.90;;;;;;5088129;28;20027;-72
2023/08/14 05:54:45;;;;;;;1999.90;999.90;;;18.80;99.90;;;;;;5086029;28;20115;-69
2023/08/14 05:57:11;;;;;;;1999.90;999.90;;;18.90;99.90;;;;;;5090315;28;20103;-69
2023/08/14 05:59:36;;;;;;;1999.90;999.90;;;19.00;99.90;;;;;;5086633;28;20081;-70
2023/08/14 06:02:02;;;;;;;1999.90;999.90;;;19.10;99.90;;;;;;5088874;28;20043;-70
2023/08/14 06:04:28;;;;;;;1999.90;999.90;;;19.30;99.90;;;;;;5084686;28;20029;-70
2023/08/14 06:06:53;;;;;;;1999.90;999.90;;;19.30;99.90;;;;;;5086419;28;20099;-71
2023/08/14 06:09:19;;;;;;;1999.90;999.90;;;19.30;99.90;;;;;;5084613;28;20469;-70
2023/08/14 06:11:45;;;;;;;1999.90;999.90;;;19.20;99.90;;;;;;5085169;28;20551;-70
2023/08/14 06:14:11;;;;;;;1999.90;999.90;;;19.40;99.90;;;;;;5088463;28;20096;-70
2023/08/14 06:16:37;;;;;;;1999.90;999.90;;;19.60;99.90;;;;;;5088236;28;20102;-71
2023/08/14 06:19:02;;;;;;;1999.90;999.90;;;19.60;99.90;;;;;;5081554;28;20500;-71
2023/08/14 06:21:28;;;;;;;1999.90;999.90;;;19.50;99.90;;;;;;5086884;28;20374;-71
2023/08/14 06:23:54;;;;;;;1999.90;999.90;;;19.60;99.90;;;;;;5088331;28;20040;-70
2023/08/14 06:26:20;;;;;;;1999.90;999.90;;;19.70;99.90;;;;;;5088448;28;20054;-71
2023/08/14 06:28:46;;;;;;;1999.90;999.90;;;19.70;99.90;;;;;;5087627;28;20047;-69
2023/08/14 06:31:12;;;;;;;1999.90;999.90;;;19.80;99.90;;;;;;5086861;28;20020;-69
2023/08/14 06:33:38;;;;;;;1999.90;999.90;;;19.70;99.90;;;;;;5081839;28;20088;-68
2023/08/14 06:36:03;;;;;;;1999.90;999.90;;;19.80;99.90;;;;;;5083986;28;20107;-71
2023/08/14 06:38:29;;;;;;;1999.90;999.90;;;19.90;99.90;;;;;;5085939;28;20043;-70
2023/08/14 06:40:55;;;;;;;1999.90;999.90;;;19.90;99.90;;;;;;5084689;28;20578;-70
2023/08/14 06:43:20;;;;;;;1999.90;999.90;;;19.90;99.90;;;;;;5081542;28;20085;-69
2023/08/14 06:45:47;;;;;;;1999.90;999.90;;;20.10;99.90;;;;;;5083979;28;20122;-70
2023/08/14 06:48:14;;;;;;;1999.90;999.90;;;20.10;99.90;;;;;;5083693;28;20504;-70
2023/08/14 06:50:39;;;;;;;1999.90;999.90;;;20.30;99.90;;;;;;5086274;28;20052;-70
2023/08/14 06:53:05;;;;;;;1999.90;999.90;;;20.50;99.90;;;;;;5088691;28;20082;-69
2023/08/14 06:55:31;;;;;;;1999.90;999.90;;;20.70;99.90;;;;;;5087455;28;20035;-68
2023/08/14 06:57:56;;;;;;;1999.90;999.90;;;20.70;99.90;;;;;;5086763;28;20085;-68
2023/08/14 07:00:22;;;;;;;1999.90;999.90;;;20.60;99.90;;;;;;5086957;28;20032;-70
2023/08/14 07:02:48;;;;;;;1999.90;999.90;;;20.80;99.90;;;;;;5085925;28;20040;-69
2023/08/14 07:05:14;;;;;;;1999.90;999.90;;;20.80;99.90;;;;;;5087100;28;20546;-71
2023/08/14 07:07:40;;;;;;;1999.90;999.90;;;20.90;99.90;;;;;;5085964;28;20085;-69
2023/08/14 07:10:06;;;;;;;1999.90;999.90;;;21.00;99.90;;;;;;5085322;28;20405;-70
2023/08/14 07:12:32;;;;;;;1999.90;999.90;;;21.00;99.90;;;;;;5078575;28;20062;-70
2023/08/14 07:15:00;;;;;;;1999.90;999.90;;;20.70;99.60;;;;;;5081704;28;20115;-69
2023/08/14 07:17:26;;;;;;;1999.90;999.90;;;20.70;99.40;;;;;;5087798;28;20036;-69
2023/08/14 07:19:52;;;;;;;1999.90;999.90;;;20.80;99.30;;;;;;5086882;28;20032;-69
2023/08/14 07:22:18;;;;;;;1999.90;999.90;;;21.10;98.70;;;;;;5087815;28;20040;-71
2023/08/14 07:24:44;;;;;;;1999.90;999.90;;;21.10;97.70;;;;;;5087144;28;20032;-70
2023/08/14 07:27:10;;;;;;;1999.90;999.90;;;21.00;98.30;;;;;;5087341;28;20466;-71
2023/08/14 07:29:36;;;;;;;1999.90;999.90;;;21.30;98.10;;;;;;5088583;28;20031;-71
2023/08/14 07:32:01;;;;;;;1999.90;999.90;;;21.40;98.00;;;;;;5089058;28;20085;-70
2023/08/14 07:34:28;;;;;;;1999.90;999.90;;;21.50;97.70;;;;;;5086720;28;20028;-71
2023/08/14 07:36:54;;;;;;;1999.90;999.90;;;21.50;96.70;;;;;;5090440;28;20854;-72
2023/08/14 07:39:20;;;;;;;1999.90;999.90;;;21.70;96.80;;;;;;5088565;28;20115;-71
2023/08/14 07:41:45;;;;;;;1999.90;999.90;;;21.80;95.00;;;;;;5084777;28;20267;-76
2023/08/14 07:44:11;;;;;;;1999.90;999.90;;;22.00;94.90;;;;;;5066680;28;20089;-77
2023/08/14 07:46:37;;;;;;;1999.90;999.90;;;22.30;93.90;;;;;;5071154;28;20039;-76
2023/08/14 07:49:03;;;;;;;1999.90;999.90;;;22.40;92.50;;;;;;5090613;28;20079;-76
2023/08/14 07:51:28;;;;;;;1999.90;999.90;;;22.40;91.80;;;;;;5090005;28;20051;-75
2023/08/14 07:53:54;;;;;;;1999.90;999.90;;;22.20;91.70;;;;;;5085504;28;20033;-76
2023/08/14 07:56:19;;;;;;;1999.90;999.90;;;22.20;91.40;;;;;;5087312;28;20032;-75
2023/08/14 07:58:45;;;;;;;1999.90;999.90;;;22.20;91.20;;;;;;5083850;28;20094;-76
2023/08/14 08:01:11;;;;;;;1999.90;999.90;;;22.00;92.00;;;;;;5088275;28;20040;-76
2023/08/14 08:03:36;;;;;;;1999.90;999.90;;;22.10;91.50;;;;;;5072589;28;20032;-75
2023/08/14 08:06:02;;;;;;;1999.90;999.90;;;22.40;91.80;;;;;;5088283;28;20123;-76
2023/08/14 08:08:28;;;;;;;1999.90;999.90;;;22.70;90.50;;;;;;5090153;28;20037;-76
2023/08/14 08:10:54;;;;;;;1999.90;999.90;;;23.00;90.00;;;;;;5085888;28;20032;-76
2023/08/14 08:13:20;;;;;;;1999.90;999.90;;;23.10;90.70;;;;;;5090187;28;20035;-75
2023/08/14 08:15:45;;;;;;;1999.90;999.90;;;23.40;89.70;;;;;;5088897;28;20417;-76
2023/08/14 08:18:11;;;;;;;1999.90;999.90;;;23.50;87.10;;;;;;5086333;28;20039;-76
2023/08/14 08:20:37;;;;;;;1999.90;999.90;;;23.60;86.00;;;;;;5087428;28;20032;-76
2023/08/14 08:23:03;;;;;;;1999.90;999.90;;;23.80;85.20;;;;;;5088278;28;20048;-76
2023/08/14 08:25:29;;;;;;;1999.90;999.90;;;24.00;85.70;;;;;;5086210;28;20032;-76
2023/08/14 08:27:55;;;;;;;1999.90;999.90;;;24.20;85.90;;;;;;5088524;28;20048;-76
2023/08/14 08:30:21;;;;;;;1999.90;999.90;;;24.00;81.70;;;;;;5080612;28;20036;-76
2023/08/14 08:32:47;;;;;;;1999.90;999.90;;;24.40;81.60;;;;;;5084398;28;20035;-78
2023/08/14 08:35:12;;;;;;;1999.90;999.90;;;24.40;79.20;;;;;;5073132;28;20031;-74
2023/08/14 08:37:38;;;;;;;1999.90;999.90;;;24.50;77.70;;;;;;5088475;28;20032;-74
2023/08/14 08:40:05;;;;;;;1999.90;999.90;;;24.90;76.90;;;;;;5087437;28;20032;-75
2023/08/14 08:42:31;;;;;;;1999.90;999.90;;;25.10;76.40;;;;;;5089427;28;20048;-74
2023/08/14 08:45:00;;;;;;;1999.90;999.90;;;25.10;78.50;;;;;;5087388;28;20032;-74
2023/08/14 08:47:29;;;;;;;1999.90;999.90;;;25.10;75.20;;;;;;5089094;28;20039;-74
2023/08/14 08:49:55;;;;;;;1999.90;999.90;;;24.80;77.70;;;;;;5089500;28;20036;-74
2023/08/14 08:52:21;;;;;;;1999.90;999.90;;;25.00;78.80;;;;;;5085141;28;20077;-73
2023/08/14 08:54:48;;;;;;;1999.90;999.90;;;25.20;76.10;;;;;;5088794;28;20061;-74
2023/08/14 08:57:14;;;;;;;1999.90;999.90;;;25.20;73.30;;;;;;5088748;28;20547;-74
2023/08/14 08:59:40;;;;;;;1999.90;999.90;;;25.30;74.40;;;;;;5086747;28;20434;-73
2023/08/14 09:02:08;;;;;;;1999.90;999.90;;;25.90;70.70;;;;;;5089597;28;20046;-74
2023/08/14 09:04:34;;;;;;;1999.90;999.90;;;26.10;71.90;;;;;;5087342;28;20035;-74
2023/08/14 09:06:59;;;;;;;1999.90;999.90;;;26.10;69.10;;;;;;5089728;28;20032;-73
2023/08/14 09:09:25;;;;;;;1999.90;999.90;;;26.40;69.20;;;;;;5089909;28;20077;-74
2023/08/14 09:11:51;;;;;;;1999.90;999.90;;;26.90;66.50;;;;;;5089225;28;20036;-74
2023/08/14 09:14:17;;;;;;;1999.90;999.90;;;26.90;64.70;;;;;;5085721;28;20024;-74
2023/08/14 09:16:44;;;;;;;1999.90;999.90;;;26.40;67.00;;;;;;5088550;28;20504;-74
2023/08/14 09:19:13;;;;;;;1999.90;999.90;;;27.00;66.70;;;;;;5088086;28;20524;-74
2023/08/14 09:21:42;;;;;;;1999.90;999.90;;;26.50;66.40;;;;;;5089229;28;20031;-75
2023/08/14 09:24:11;;;;;;;1999.90;999.90;;;26.10;67.00;;;;;;5087831;28;20063;-74
2023/08/14 09:26:37;;;;;;;1999.90;999.90;;;26.40;66.20;;;;;;5085225;28;20056;-74
2023/08/14 09:29:03;;;;;;;1999.90;999.90;;;26.50;65.80;;;;;;5068478;28;20085;-74
2023/08/14 09:31:31;;;;;;;1999.90;999.90;;;26.50;68.70;;;;;;5089083;28;20169;-74
2023/08/14 09:33:57;;;;;;;1999.90;999.90;;;26.50;67.10;;;;;;5084012;28;20036;-74
2023/08/14 09:36:22;;;;;;;1999.90;999.90;;;26.70;66.10;;;;;;5087675;28;20038;-74
2023/08/14 09:38:51;;;;;;;1999.90;999.90;;;26.50;65.00;;;;;;5088735;28;20037;-74
2023/08/14 09:41:19;;;;;;;1999.90;999.90;;;26.40;67.80;;;;;;5087265;28;20489;-74
2023/08/14 09:43:45;;;;;;;1999.90;999.90;;;26.80;67.80;;;;;;5085638;28;20032;-74
2023/08/14 09:46:17;;;;;;;1999.90;999.90;;;27.10;66.50;;;;;;5085823;28;20044;-74
2023/08/14 09:48:47;;;;;;;1999.90;999.90;;;27.60;65.20;;;;;;5086405;28;20028;-74
2023/08/14 09:51:15;;;;;;;1999.90;999.90;;;27.10;64.50;;;;;;5087826;28;20035;-74
2023/08/14 09:53:50;;;;;;;1999.90;999.90;;;27.60;64.50;;;;;;5087073;28;20092;-74
2023/08/14 09:56:18;;;;;;;1999.90;999.90;;;28.00;64.30;;;;;;5086323;28;20032;-74
2023/08/14 09:58:44;;;;;;;1999.90;999.90;;;27.70;62.90;;;;;;5085679;28;20728;-74
2023/08/14 10:01:17;;;;;;;1999.90;999.90;;;27.90;65.30;;;;;;5088151;28;20097;-75
2023/08/14 10:03:46;;;;;;;1999.90;999.90;;;28.20;65.40;;;;;;5067869;28;20506;-67
2023/08/14 10:06:13;;;;;;;1999.90;999.90;;;28.60;61.80;;;;;;5083636;28;20044;-73
2023/08/14 10:08:42;;;;;;;1999.90;999.90;;;28.40;61.40;;;;;;5089003;28;20039;-73
2023/08/14 10:11:11;;;;;;;1999.90;999.90;;;28.70;62.60;;;;;;5087510;28;20024;-72
2023/08/14 10:13:43;;;;;;;1999.90;999.90;;;28.50;61.30;;;;;;5088405;28;20111;-72
2023/08/14 10:16:14;;;;;;;1999.90;999.90;;;28.90;60.00;;;;;;5084828;28;20336;-72
2023/08/14 10:18:41;;;;;;;1999.90;999.90;;;28.80;59.80;;;;;;5086425;28;20153;-73
2023/08/14 10:21:12;;;;;;;1999.90;999.90;;;28.20;59.40;;;;;;5087680;28;20028;-73
2023/08/14 10:23:39;;;;;;;1999.90;999.90;;;27.90;61.50;;;;;;5088603;28;20042;-72
2023/08/14 10:26:06;;;;;;;1999.90;999.90;;;28.20;62.10;;;;;;5088180;28;20154;-72
2023/08/14 10:28:32;;;;;;;1999.90;999.90;;;28.40;57.80;;;;;;5083714;28;20036;-73
2023/08/14 10:30:59;;;;;;;1999.90;999.90;;;28.80;57.00;;;;;;5087359;28;20111;-73
2023/08/14 10:33:26;;;;;;;1999.90;999.90;;;28.80;59.50;;;;;;5085685;28;20028;-73
2023/08/14 10:35:58;;;;;;;1999.90;999.90;;;28.80;57.10;;;;;;5087372;28;20028;-73
2023/08/14 10:38:39;;;;;;;1999.90;999.90;;;29.20;59.10;;;;;;5085473;28;20818;-73
2023/08/14 10:41:07;;;;;;;1999.90;999.90;;;29.20;56.10;;;;;;5086229;28;20486;-73
2023/08/14 10:43:32;;;;;;;1999.90;999.90;;;29.20;55.10;;;;;;5081718;28;20090;-74
2023/08/14 10:45:58;;;;;;;1999.90;999.90;;;29.90;53.80;;;;;;5080747;28;20024;-74
2023/08/14 10:48:24;;;;;;;1999.90;999.90;;;29.80;56.50;;;;;;5083274;28;20028;-74
2023/08/14 10:50:59;;;;;;;1999.90;999.90;;;29.80;55.90;;;;;;5087672;28;20062;-74
2023/08/14 10:53:25;;;;;;;1999.90;999.90;;;29.80;57.60;;;;;;5079248;28;20020;-74
2023/08/14 10:55:52;;;;;;;1999.90;999.90;;;29.60;57.00;;;;;;5085118;28;20081;-75
2023/08/14 10:58:33;;;;;;;1999.90;999.90;;;30.30;56.80;;;;;;5085335;28;20431;-74
2023/08/14 11:00:59;;;;;;;1999.90;999.90;;;31.00;51.80;;;;;;5087914;28;20024;-74
2023/08/14 11:03:25;;;;;;;1999.90;999.90;;;31.20;48.40;;;;;;5088482;28;20128;-74
2023/08/14 11:05:51;;;;;;;1999.90;999.90;;;31.20;51.70;;;;;;5086773;28;20028;-74
2023/08/14 11:08:17;;;;;;;1999.90;999.90;;;31.30;47.80;;;;;;5087853;28;20090;-74
2023/08/14 11:10:44;;;;;;;1999.90;999.90;;;31.50;47.20;;;;;;5086914;28;20036;-74
2023/08/14 11:13:10;;;;;;;1999.90;999.90;;;31.40;47.30;;;;;;5084887;28;20107;-74
2023/08/14 11:15:39;;;;;;;1999.90;999.90;;;32.40;48.70;;;;;;5086131;28;20241;-74
2023/08/14 11:18:06;;;;;;;1999.90;999.90;;;33.00;44.40;;;;;;5087869;28;20073;-73
2023/08/14 11:20:32;;;;;;;1999.90;999.90;;;32.60;48.50;;;;;;5085013;28;20024;-74
2023/08/14 11:23:01;;;;;;;1999.90;999.90;;;33.10;44.60;;;;;;5086958;28;20047;-74
2023/08/14 11:25:27;;;;;;;1999.90;999.90;;;32.80;43.40;;;;;;5083471;28;20034;-74
2023/08/14 11:27:54;;;;;;;1999.90;999.90;;;32.90;45.60;;;;;;5088967;28;20048;-74
2023/08/14 11:30:22;;;;;;;1999.90;999.90;;;32.90;43.00;;;;;;5088622;28;20020;-74
2023/08/14 11:32:49;;;;;;;1999.90;999.90;;;33.70;43.00;;;;;;5087917;28;20554;-74
2023/08/14 11:35:16;;;;;;;1999.90;999.90;;;33.70;42.70;;;;;;5081280;28;20036;-73
2023/08/14 11:37:41;;;;;;;1999.90;999.90;;;33.50;41.70;;;;;;5088133;28;20101;-74
2023/08/14 11:40:10;;;;;;;1999.90;999.90;;;33.20;41.60;;;;;;5086808;28;20032;-74
2023/08/14 11:42:37;;;;;;;1999.90;999.90;;;33.30;41.70;;;;;;5086567;28;20498;-74
2023/08/14 11:45:04;;;;;;;1999.90;999.90;;;32.40;45.90;;;;;;5087553;28;20123;-73
2023/08/14 11:47:32;;;;;;;1999.90;999.90;;;33.00;39.10;;;;;;5083135;28;20036;-73
2023/08/14 11:49:59;;;;;;;1999.90;999.90;;;32.70;39.70;;;;;;5085933;28;20035;-75
2023/08/14 11:52:26;;;;;;;1999.90;999.90;;;34.50;39.40;;;;;;5086516;28;20119;-73
2023/08/14 11:54:53;;;;;;;1999.90;999.90;;;35.10;36.30;;;;;;5085261;28;20024;-74
2023/08/14 11:57:21;;;;;;;1999.90;999.90;;;34.50;39.70;;;;;;5088187;28;20020;-75